Terminal Aerodrome Forecast
Issued by NWS

Home | Current Version | Previous Version | Text Only | Print | Product List | Glossary On
Versions: 1 2 3 4 5 6 7 8 9 10 11 12 13 14
000
FTUS45 KSLC 201450 AAA
TAFBCE
TAF AMD
KBCE 201450Z 2015/2112 15014KT P6SM FEW090
     FM201800 24018G28KT P6SM SCT090
     FM202100 28020G30KT P6SM SCT090
     FM210200 30013KT P6SM SCT090=

USA.gov is the U.S. government's official web portal to all federal, state and local government web resources and services.